Página principal
METAR-TAF:

METAR-TAF

Aeroportos :

Noorvik, Alasca, Estados Unidos

latitude: 66-49-03N, longitude: 161-01-20W, altura: 17 m

Observação actual do tempo

O boletim foi feito há 48 minutos, às 10:56 UTC
Vento 7 kt de su-sudoeste
Temperatura 10°C
Humidade 93%
Pressão 1015 hPa
Visibilidade: 16.1 km
Céu limpo

METAR: PFNO 211056Z AUTO 21007KT 10SM CLR 10/09 A2997 RMK AO2 SLP231 T01000094 $

Hora: 03:44 (11:44 UTC)


TAF: em falta

Observações e previsões do tempo de mais de 4000 aeroportos (mensagens METAR e TAF).

As estações disponíveis são os pontos amarelos e vermelhos sobre o mapa.

Mova o rato sobre o mapa para ver o nome da estação.

Depois clique no ponto para visualizar as observações e previsões meteorológicas.

Para alterar o mapa : clique nos botões verdes com uma cruz preta para aumentar o zoom; no botão verde com uma pitada de zoom; ou nas setas verdes para mapas adjacentes.


METAR-TAF: